sensor_id;sensor_type;location;lat;lon;timestamp;P1;durP1;ratioP1;P2;durP2;ratioP2
49688;SDS011;70518;51.400;7.428;2023-06-22T00:01:24;2.05;;;1.70;;
49688;SDS011;70518;51.400;7.428;2023-06-22T00:03:50;2.75;;;1.60;;
49688;SDS011;70518;51.400;7.428;2023-06-22T00:06:15;4.00;;;1.73;;
49688;SDS011;70518;51.400;7.428;2023-06-22T00:08:41;2.88;;;2.33;;
49688;SDS011;70518;51.400;7.428;2023-06-22T00:11:06;3.05;;;2.40;;
49688;SDS011;70518;51.400;7.428;2023-06-22T00:13:31;3.00;;;2.70;;
49688;SDS011;70518;51.400;7.428;2023-06-22T00:15:57;4.93;;;2.97;;
49688;SDS011;70518;51.400;7.428;2023-06-22T00:18:22;3.47;;;2.53;;
49688;SDS011;70518;51.400;7.428;2023-06-22T00:20:52;5.43;;;3.22;;
49688;SDS011;70518;51.400;7.428;2023-06-22T00:23:21;3.00;;;2.30;;
49688;SDS011;70518;51.400;7.428;2023-06-22T00:25:48;2.42;;;2.20;;
49688;SDS011;70518;51.400;7.428;2023-06-22T00:28:14;3.95;;;2.25;;
49688;SDS011;70518;51.400;7.428;2023-06-22T00:30:39;3.50;;;2.20;;
49688;SDS011;70518;51.400;7.428;2023-06-22T00:33:05;3.50;;;1.80;;
49688;SDS011;70518;51.400;7.428;2023-06-22T00:35:32;3.30;;;1.63;;
49688;SDS011;70518;51.400;7.428;2023-06-22T00:37:58;3.78;;;1.73;;
49688;SDS011;70518;51.400;7.428;2023-06-22T00:42:54;3.53;;;2.13;;
49688;SDS011;70518;51.400;7.428;2023-06-22T00:45:20;4.60;;;1.98;;
49688;SDS011;70518;51.400;7.428;2023-06-22T00:47:48;2.60;;;1.58;;
49688;SDS011;70518;51.400;7.428;2023-06-22T00:50:17;1.80;;;1.30;;
49688;SDS011;70518;51.400;7.428;2023-06-22T00:52:53;3.35;;;1.48;;
49688;SDS011;70518;51.400;7.428;2023-06-22T00:55:23;2.45;;;1.25;;
49688;SDS011;70518;51.400;7.428;2023-06-22T00:57:49;1.92;;;1.30;;
49688;SDS011;70518;51.400;7.428;2023-06-22T01:00:15;3.05;;;1.92;;
49688;SDS011;70518;51.400;7.428;2023-06-22T01:02:44;3.38;;;1.42;;
49688;SDS011;70518;51.400;7.428;2023-06-22T01:05:14;2.47;;;1.35;;
49688;SDS011;70518;51.400;7.428;2023-06-22T01:07:56;4.75;;;1.85;;
49688;SDS011;70518;51.400;7.428;2023-06-22T01:10:32;2.28;;;1.83;;
49688;SDS011;70518;51.400;7.428;2023-06-22T01:16:10;2.00;;;1.70;;
49688;SDS011;70518;51.400;7.428;2023-06-22T01:18:42;2.63;;;1.60;;
49688;SDS011;70518;51.400;7.428;2023-06-22T01:21:09;2.15;;;1.50;;
49688;SDS011;70518;51.400;7.428;2023-06-22T01:23:47;2.58;;;1.75;;
49688;SDS011;70518;51.400;7.428;2023-06-22T01:26:21;3.03;;;1.70;;
49688;SDS011;70518;51.400;7.428;2023-06-22T01:28:58;2.45;;;1.52;;
49688;SDS011;70518;51.400;7.428;2023-06-22T01:31:25;3.05;;;1.58;;
49688;SDS011;70518;51.400;7.428;2023-06-22T01:33:59;2.42;;;1.88;;
49688;SDS011;70518;51.400;7.428;2023-06-22T01:36:26;3.65;;;1.90;;
49688;SDS011;70518;51.400;7.428;2023-06-22T01:38:54;3.75;;;2.30;;
49688;SDS011;70518;51.400;7.428;2023-06-22T01:41:24;2.33;;;1.42;;
49688;SDS011;70518;51.400;7.428;2023-06-22T01:43:50;2.20;;;1.52;;
49688;SDS011;70518;51.400;7.428;2023-06-22T01:46:16;3.85;;;2.33;;
49688;SDS011;70518;51.400;7.428;2023-06-22T01:48:44;4.15;;;2.88;;
49688;SDS011;70518;51.400;7.428;2023-06-22T01:51:11;3.53;;;2.60;;
49688;SDS011;70518;51.400;7.428;2023-06-22T01:53:36;4.28;;;2.83;;
49688;SDS011;70518;51.400;7.428;2023-06-22T01:56:02;6.40;;;2.75;;
49688;SDS011;70518;51.400;7.428;2023-06-22T01:58:27;4.47;;;2.40;;
49688;SDS011;70518;51.400;7.428;2023-06-22T02:01:08;3.60;;;2.90;;
49688;SDS011;70518;51.400;7.428;2023-06-22T02:03:43;3.22;;;2.00;;
49688;SDS011;70518;51.400;7.428;2023-06-22T02:06:14;2.85;;;2.55;;
49688;SDS011;70518;51.400;7.428;2023-06-22T02:08:49;2.80;;;2.00;;
49688;SDS011;70518;51.400;7.428;2023-06-22T02:11:18;3.67;;;2.67;;
49688;SDS011;70518;51.400;7.428;2023-06-22T02:13:46;4.20;;;2.22;;
49688;SDS011;70518;51.400;7.428;2023-06-22T02:16:13;3.75;;;2.38;;
49688;SDS011;70518;51.400;7.428;2023-06-22T02:18:47;3.38;;;2.55;;
49688;SDS011;70518;51.400;7.428;2023-06-22T02:21:15;4.65;;;2.20;;
49688;SDS011;70518;51.400;7.428;2023-06-22T02:23:41;3.08;;;1.88;;
49688;SDS011;70518;51.400;7.428;2023-06-22T02:26:06;3.42;;;2.10;;
49688;SDS011;70518;51.400;7.428;2023-06-22T02:28:34;2.83;;;1.80;;
49688;SDS011;70518;51.400;7.428;2023-06-22T02:31:01;2.53;;;2.03;;
49688;SDS011;70518;51.400;7.428;2023-06-22T02:33:29;4.50;;;2.55;;
49688;SDS011;70518;51.400;7.428;2023-06-22T02:35:55;3.65;;;1.92;;
49688;SDS011;70518;51.400;7.428;2023-06-22T02:38:20;3.90;;;1.95;;
49688;SDS011;70518;51.400;7.428;2023-06-22T02:40:46;3.42;;;2.00;;
49688;SDS011;70518;51.400;7.428;2023-06-22T02:43:11;3.00;;;2.30;;
49688;SDS011;70518;51.400;7.428;2023-06-22T02:45:37;2.53;;;2.30;;
49688;SDS011;70518;51.400;7.428;2023-06-22T02:48:02;4.03;;;2.13;;
49688;SDS011;70518;51.400;7.428;2023-06-22T02:50:28;2.85;;;2.13;;
49688;SDS011;70518;51.400;7.428;2023-06-22T02:52:53;4.50;;;1.98;;
49688;SDS011;70518;51.400;7.428;2023-06-22T02:55:19;3.60;;;2.28;;
49688;SDS011;70518;51.400;7.428;2023-06-22T02:57:44;3.85;;;2.58;;
49688;SDS011;70518;51.400;7.428;2023-06-22T03:00:11;3.97;;;2.03;;
49688;SDS011;70518;51.400;7.428;2023-06-22T03:02:43;2.88;;;2.15;;
49688;SDS011;70518;51.400;7.428;2023-06-22T03:05:09;3.67;;;1.70;;
49688;SDS011;70518;51.400;7.428;2023-06-22T03:07:38;2.25;;;1.88;;
49688;SDS011;70518;51.400;7.428;2023-06-22T03:10:04;3.50;;;2.47;;
49688;SDS011;70518;51.400;7.428;2023-06-22T03:12:34;3.13;;;2.08;;
49688;SDS011;70518;51.400;7.428;2023-06-22T03:14:59;2.80;;;1.92;;
49688;SDS011;70518;51.400;7.428;2023-06-22T03:17:24;2.45;;;2.05;;
49688;SDS011;70518;51.400;7.428;2023-06-22T03:19:50;3.75;;;2.30;;
49688;SDS011;70518;51.400;7.428;2023-06-22T03:22:15;3.17;;;2.42;;
49688;SDS011;70518;51.400;7.428;2023-06-22T03:24:40;3.80;;;2.92;;
49688;SDS011;70518;51.400;7.428;2023-06-22T03:27:06;4.53;;;2.60;;
49688;SDS011;70518;51.400;7.428;2023-06-22T03:29:31;3.40;;;2.25;;
49688;SDS011;70518;51.400;7.428;2023-06-22T03:31:56;3.92;;;2.45;;
49688;SDS011;70518;51.400;7.428;2023-06-22T03:34:22;4.55;;;3.03;;
49688;SDS011;70518;51.400;7.428;2023-06-22T03:36:47;4.00;;;2.65;;
49688;SDS011;70518;51.400;7.428;2023-06-22T03:39:12;5.57;;;2.90;;
49688;SDS011;70518;51.400;7.428;2023-06-22T03:41:38;5.38;;;2.67;;
49688;SDS011;70518;51.400;7.428;2023-06-22T03:44:03;3.17;;;2.58;;
49688;SDS011;70518;51.400;7.428;2023-06-22T03:46:29;5.43;;;3.10;;
49688;SDS011;70518;51.400;7.428;2023-06-22T03:48:54;6.95;;;2.90;;
49688;SDS011;70518;51.400;7.428;2023-06-22T03:51:19;5.25;;;3.28;;
49688;SDS011;70518;51.400;7.428;2023-06-22T03:53:45;5.50;;;3.53;;
49688;SDS011;70518;51.400;7.428;2023-06-22T03:56:10;4.00;;;3.40;;
49688;SDS011;70518;51.400;7.428;2023-06-22T03:58:35;4.43;;;3.13;;
49688;SDS011;70518;51.400;7.428;2023-06-22T04:01:01;5.45;;;4.47;;
49688;SDS011;70518;51.400;7.428;2023-06-22T04:03:27;5.47;;;3.38;;
49688;SDS011;70518;51.400;7.428;2023-06-22T04:05:52;5.65;;;4.10;;
49688;SDS011;70518;51.400;7.428;2023-06-22T04:08:17;5.03;;;4.18;;
49688;SDS011;70518;51.400;7.428;2023-06-22T04:10:46;4.07;;;3.72;;
49688;SDS011;70518;51.400;7.428;2023-06-22T04:13:11;4.40;;;3.42;;
49688;SDS011;70518;51.400;7.428;2023-06-22T04:15:36;4.43;;;3.63;;
49688;SDS011;70518;51.400;7.428;2023-06-22T04:18:02;5.22;;;3.38;;
49688;SDS011;70518;51.400;7.428;2023-06-22T04:20:27;5.72;;;4.00;;
49688;SDS011;70518;51.400;7.428;2023-06-22T04:22:53;6.72;;;3.45;;
49688;SDS011;70518;51.400;7.428;2023-06-22T04:25:19;5.55;;;3.05;;
49688;SDS011;70518;51.400;7.428;2023-06-22T04:27:44;5.18;;;3.00;;
49688;SDS011;70518;51.400;7.428;2023-06-22T04:30:10;3.70;;;3.35;;
49688;SDS011;70518;51.400;7.428;2023-06-22T04:32:35;4.80;;;3.15;;
49688;SDS011;70518;51.400;7.428;2023-06-22T04:35:01;4.38;;;3.97;;
49688;SDS011;70518;51.400;7.428;2023-06-22T04:37:30;5.78;;;3.88;;
49688;SDS011;70518;51.400;7.428;2023-06-22T04:39:55;5.68;;;4.55;;
49688;SDS011;70518;51.400;7.428;2023-06-22T04:42:21;7.35;;;4.88;;
49688;SDS011;70518;51.400;7.428;2023-06-22T04:44:46;7.93;;;4.50;;
49688;SDS011;70518;51.400;7.428;2023-06-22T04:47:11;7.53;;;4.68;;
49688;SDS011;70518;51.400;7.428;2023-06-22T04:49:37;7.00;;;5.10;;
49688;SDS011;70518;51.400;7.428;2023-06-22T04:52:03;9.48;;;5.18;;
49688;SDS011;70518;51.400;7.428;2023-06-22T04:54:30;9.10;;;5.85;;
49688;SDS011;70518;51.400;7.428;2023-06-22T04:57:02;9.90;;;5.90;;
49688;SDS011;70518;51.400;7.428;2023-06-22T04:59:29;11.77;;;6.00;;
49688;SDS011;70518;51.400;7.428;2023-06-22T05:01:55;6.82;;;6.05;;
49688;SDS011;70518;51.400;7.428;2023-06-22T05:04:24;10.32;;;6.20;;
49688;SDS011;70518;51.400;7.428;2023-06-22T05:06:52;8.43;;;6.03;;
49688;SDS011;70518;51.400;7.428;2023-06-22T05:09:17;7.00;;;5.78;;
49688;SDS011;70518;51.400;7.428;2023-06-22T05:11:43;7.60;;;6.70;;
49688;SDS011;70518;51.400;7.428;2023-06-22T05:14:09;10.65;;;7.47;;
49688;SDS011;70518;51.400;7.428;2023-06-22T05:16:34;10.35;;;6.82;;
49688;SDS011;70518;51.400;7.428;2023-06-22T05:19:01;8.65;;;7.47;;
49688;SDS011;70518;51.400;7.428;2023-06-22T05:21:28;10.68;;;7.38;;
49688;SDS011;70518;51.400;7.428;2023-06-22T05:23:53;10.35;;;6.80;;
49688;SDS011;70518;51.400;7.428;2023-06-22T05:26:19;9.18;;;7.30;;
49688;SDS011;70518;51.400;7.428;2023-06-22T05:28:45;7.85;;;7.07;;
49688;SDS011;70518;51.400;7.428;2023-06-22T05:31:14;7.57;;;6.25;;
49688;SDS011;70518;51.400;7.428;2023-06-22T05:33:41;9.55;;;6.32;;
49688;SDS011;70518;51.400;7.428;2023-06-22T05:36:06;8.85;;;6.70;;
49688;SDS011;70518;51.400;7.428;2023-06-22T05:38:32;10.18;;;6.82;;
49688;SDS011;70518;51.400;7.428;2023-06-22T05:40:57;8.30;;;6.93;;
49688;SDS011;70518;51.400;7.428;2023-06-22T05:43:23;8.88;;;6.82;;
49688;SDS011;70518;51.400;7.428;2023-06-22T05:45:48;8.07;;;5.95;;
49688;SDS011;70518;51.400;7.428;2023-06-22T05:48:13;8.43;;;6.85;;
49688;SDS011;70518;51.400;7.428;2023-06-22T05:50:39;8.90;;;6.43;;
49688;SDS011;70518;51.400;7.428;2023-06-22T05:53:04;9.05;;;6.78;;
49688;SDS011;70518;51.400;7.428;2023-06-22T05:55:31;9.77;;;7.20;;
49688;SDS011;70518;51.400;7.428;2023-06-22T05:57:57;10.88;;;8.02;;
49688;SDS011;70518;51.400;7.428;2023-06-22T06:00:22;9.65;;;6.65;;
49688;SDS011;70518;51.400;7.428;2023-06-22T06:02:48;8.10;;;6.63;;
49688;SDS011;70518;51.400;7.428;2023-06-22T06:05:14;10.13;;;7.72;;
49688;SDS011;70518;51.400;7.428;2023-06-22T06:07:40;9.50;;;8.00;;
49688;SDS011;70518;51.400;7.428;2023-06-22T06:10:06;10.02;;;8.32;;
49688;SDS011;70518;51.400;7.428;2023-06-22T06:12:32;9.63;;;7.78;;
49688;SDS011;70518;51.400;7.428;2023-06-22T06:14:57;9.63;;;7.72;;
49688;SDS011;70518;51.400;7.428;2023-06-22T06:17:22;9.93;;;7.80;;
49688;SDS011;70518;51.400;7.428;2023-06-22T06:19:48;10.23;;;7.47;;
49688;SDS011;70518;51.400;7.428;2023-06-22T06:22:13;9.63;;;7.82;;
49688;SDS011;70518;51.400;7.428;2023-06-22T06:24:38;11.10;;;7.90;;
49688;SDS011;70518;51.400;7.428;2023-06-22T06:27:03;10.85;;;8.15;;
49688;SDS011;70518;51.400;7.428;2023-06-22T06:29:29;8.73;;;7.63;;
49688;SDS011;70518;51.400;7.428;2023-06-22T06:31:55;11.10;;;7.93;;
49688;SDS011;70518;51.400;7.428;2023-06-22T06:34:21;12.55;;;8.52;;
49688;SDS011;70518;51.400;7.428;2023-06-22T06:36:47;10.02;;;7.78;;
49688;SDS011;70518;51.400;7.428;2023-06-22T06:39:12;10.98;;;8.05;;
49688;SDS011;70518;51.400;7.428;2023-06-22T06:41:38;12.32;;;8.85;;
49688;SDS011;70518;51.400;7.428;2023-06-22T06:44:03;13.80;;;9.55;;
49688;SDS011;70518;51.400;7.428;2023-06-22T06:46:28;11.07;;;8.77;;
49688;SDS011;70518;51.400;7.428;2023-06-22T06:48:54;12.13;;;9.32;;
49688;SDS011;70518;51.400;7.428;2023-06-22T06:51:19;12.55;;;8.90;;
49688;SDS011;70518;51.400;7.428;2023-06-22T06:53:44;9.75;;;8.60;;
49688;SDS011;70518;51.400;7.428;2023-06-22T06:56:09;14.18;;;9.18;;
49688;SDS011;70518;51.400;7.428;2023-06-22T06:58:35;12.90;;;9.93;;
49688;SDS011;70518;51.400;7.428;2023-06-22T07:01:01;12.07;;;9.65;;
49688;SDS011;70518;51.400;7.428;2023-06-22T07:03:27;10.18;;;9.07;;
49688;SDS011;70518;51.400;7.428;2023-06-22T07:05:53;10.35;;;9.18;;
49688;SDS011;70518;51.400;7.428;2023-06-22T07:08:18;12.18;;;9.82;;
49688;SDS011;70518;51.400;7.428;2023-06-22T07:10:43;10.00;;;9.00;;
49688;SDS011;70518;51.400;7.428;2023-06-22T07:13:09;9.85;;;8.10;;
49688;SDS011;70518;51.400;7.428;2023-06-22T07:15:34;9.48;;;8.40;;
49688;SDS011;70518;51.400;7.428;2023-06-22T07:17:59;11.20;;;8.07;;
49688;SDS011;70518;51.400;7.428;2023-06-22T07:20:24;9.40;;;7.97;;
49688;SDS011;70518;51.400;7.428;2023-06-22T07:22:50;10.43;;;8.07;;
49688;SDS011;70518;51.400;7.428;2023-06-22T07:25:16;9.82;;;8.18;;
49688;SDS011;70518;51.400;7.428;2023-06-22T07:27:46;8.75;;;7.88;;
49688;SDS011;70518;51.400;7.428;2023-06-22T07:30:21;9.10;;;7.70;;
49688;SDS011;70518;51.400;7.428;2023-06-22T07:32:47;12.18;;;8.15;;
49688;SDS011;70518;51.400;7.428;2023-06-22T07:35:12;8.48;;;7.57;;
49688;SDS011;70518;51.400;7.428;2023-06-22T07:37:37;8.38;;;7.47;;
49688;SDS011;70518;51.400;7.428;2023-06-22T07:40:03;8.35;;;7.43;;
49688;SDS011;70518;51.400;7.428;2023-06-22T07:42:32;8.65;;;7.45;;
49688;SDS011;70518;51.400;7.428;2023-06-22T07:44:58;8.68;;;7.63;;
49688;SDS011;70518;51.400;7.428;2023-06-22T07:47:23;7.95;;;7.10;;
49688;SDS011;70518;51.400;7.428;2023-06-22T07:49:53;8.77;;;7.35;;
49688;SDS011;70518;51.400;7.428;2023-06-22T07:52:20;8.27;;;7.35;;
49688;SDS011;70518;51.400;7.428;2023-06-22T07:54:46;7.63;;;6.88;;
49688;SDS011;70518;51.400;7.428;2023-06-22T07:57:11;9.02;;;7.40;;
49688;SDS011;70518;51.400;7.428;2023-06-22T07:59:37;7.40;;;6.53;;
49688;SDS011;70518;51.400;7.428;2023-06-22T08:02:03;8.52;;;6.50;;
49688;SDS011;70518;51.400;7.428;2023-06-22T08:04:28;8.02;;;7.22;;
49688;SDS011;70518;51.400;7.428;2023-06-22T08:06:55;7.78;;;6.57;;
49688;SDS011;70518;51.400;7.428;2023-06-22T08:09:21;6.97;;;6.38;;
49688;SDS011;70518;51.400;7.428;2023-06-22T08:11:46;9.05;;;6.53;;
49688;SDS011;70518;51.400;7.428;2023-06-22T08:14:12;7.95;;;6.25;;
49688;SDS011;70518;51.400;7.428;2023-06-22T08:16:38;6.95;;;6.07;;
49688;SDS011;70518;51.400;7.428;2023-06-22T08:19:03;7.30;;;6.30;;
49688;SDS011;70518;51.400;7.428;2023-06-22T08:21:28;10.77;;;6.28;;
49688;SDS011;70518;51.400;7.428;2023-06-22T08:23:54;6.72;;;6.03;;
49688;SDS011;70518;51.400;7.428;2023-06-22T08:26:19;7.78;;;6.00;;
49688;SDS011;70518;51.400;7.428;2023-06-22T08:28:45;7.35;;;5.28;;
49688;SDS011;70518;51.400;7.428;2023-06-22T08:31:10;7.45;;;5.38;;
49688;SDS011;70518;51.400;7.428;2023-06-22T08:33:37;6.10;;;5.47;;
49688;SDS011;70518;51.400;7.428;2023-06-22T08:36:02;6.05;;;5.03;;
49688;SDS011;70518;51.400;7.428;2023-06-22T08:38:31;5.63;;;5.13;;
49688;SDS011;70518;51.400;7.428;2023-06-22T08:40:56;6.30;;;5.20;;
49688;SDS011;70518;51.400;7.428;2023-06-22T08:43:21;5.30;;;4.72;;
49688;SDS011;70518;51.400;7.428;2023-06-22T08:45:47;5.10;;;4.60;;
49688;SDS011;70518;51.400;7.428;2023-06-22T08:48:12;8.65;;;5.78;;
49688;SDS011;70518;51.400;7.428;2023-06-22T08:50:37;7.47;;;5.20;;
49688;SDS011;70518;51.400;7.428;2023-06-22T08:53:05;5.57;;;5.07;;
49688;SDS011;70518;51.400;7.428;2023-06-22T08:55:30;6.80;;;5.10;;
49688;SDS011;70518;51.400;7.428;2023-06-22T08:57:56;5.55;;;4.93;;
49688;SDS011;70518;51.400;7.428;2023-06-22T09:00:21;6.90;;;4.95;;
49688;SDS011;70518;51.400;7.428;2023-06-22T09:02:46;6.65;;;5.53;;
49688;SDS011;70518;51.400;7.428;2023-06-22T09:05:12;6.13;;;5.40;;
49688;SDS011;70518;51.400;7.428;2023-06-22T09:07:38;8.65;;;6.57;;
49688;SDS011;70518;51.400;7.428;2023-06-22T09:10:04;8.02;;;7.07;;
49688;SDS011;70518;51.400;7.428;2023-06-22T09:12:30;9.38;;;6.65;;
49688;SDS011;70518;51.400;7.428;2023-06-22T09:14:55;6.78;;;6.07;;
49688;SDS011;70518;51.400;7.428;2023-06-22T09:17:21;8.05;;;6.40;;
49688;SDS011;70518;51.400;7.428;2023-06-22T09:19:47;9.05;;;6.78;;
49688;SDS011;70518;51.400;7.428;2023-06-22T09:22:13;8.15;;;5.63;;
49688;SDS011;70518;51.400;7.428;2023-06-22T09:24:39;5.65;;;5.15;;
49688;SDS011;70518;51.400;7.428;2023-06-22T09:27:04;18.05;;;7.13;;
49688;SDS011;70518;51.400;7.428;2023-06-22T09:29:30;6.70;;;5.35;;
49688;SDS011;70518;51.400;7.428;2023-06-22T09:31:58;6.85;;;5.03;;
49688;SDS011;70518;51.400;7.428;2023-06-22T09:34:23;6.78;;;5.40;;
49688;SDS011;70518;51.400;7.428;2023-06-22T09:36:48;7.28;;;5.32;;
49688;SDS011;70518;51.400;7.428;2023-06-22T09:39:14;7.18;;;4.60;;
49688;SDS011;70518;51.400;7.428;2023-06-22T09:41:39;5.53;;;4.70;;
49688;SDS011;70518;51.400;7.428;2023-06-22T09:44:05;4.88;;;4.13;;
49688;SDS011;70518;51.400;7.428;2023-06-22T09:46:30;7.10;;;4.70;;
49688;SDS011;70518;51.400;7.428;2023-06-22T09:48:55;4.90;;;4.40;;
49688;SDS011;70518;51.400;7.428;2023-06-22T09:51:21;6.70;;;5.95;;
49688;SDS011;70518;51.400;7.428;2023-06-22T09:53:48;6.25;;;4.95;;
49688;SDS011;70518;51.400;7.428;2023-06-22T09:56:14;6.00;;;5.28;;
49688;SDS011;70518;51.400;7.428;2023-06-22T09:58:41;6.78;;;5.95;;
49688;SDS011;70518;51.400;7.428;2023-06-22T10:01:07;6.95;;;5.88;;
49688;SDS011;70518;51.400;7.428;2023-06-22T10:03:32;7.18;;;6.15;;
49688;SDS011;70518;51.400;7.428;2023-06-22T10:05:58;7.55;;;6.80;;
49688;SDS011;70518;51.400;7.428;2023-06-22T10:08:23;7.68;;;6.97;;
49688;SDS011;70518;51.400;7.428;2023-06-22T10:10:48;8.30;;;7.10;;
49688;SDS011;70518;51.400;7.428;2023-06-22T10:13:14;6.75;;;6.05;;
49688;SDS011;70518;51.400;7.428;2023-06-22T10:15:39;7.93;;;5.85;;
49688;SDS011;70518;51.400;7.428;2023-06-22T10:18:05;8.02;;;5.50;;
49688;SDS011;70518;51.400;7.428;2023-06-22T10:20:31;7.07;;;6.03;;
49688;SDS011;70518;51.400;7.428;2023-06-22T10:22:56;9.00;;;7.15;;
49688;SDS011;70518;51.400;7.428;2023-06-22T10:25:21;9.27;;;6.68;;
49688;SDS011;70518;51.400;7.428;2023-06-22T10:27:47;8.82;;;6.40;;
49688;SDS011;70518;51.400;7.428;2023-06-22T10:30:13;7.55;;;5.70;;
49688;SDS011;70518;51.400;7.428;2023-06-22T10:32:38;6.78;;;5.95;;
49688;SDS011;70518;51.400;7.428;2023-06-22T10:35:04;6.78;;;5.95;;
49688;SDS011;70518;51.400;7.428;2023-06-22T10:37:30;9.13;;;6.47;;
49688;SDS011;70518;51.400;7.428;2023-06-22T10:39:55;6.68;;;6.00;;
49688;SDS011;70518;51.400;7.428;2023-06-22T10:42:21;8.43;;;6.10;;
49688;SDS011;70518;51.400;7.428;2023-06-22T10:44:46;8.70;;;6.38;;
49688;SDS011;70518;51.400;7.428;2023-06-22T10:47:11;8.63;;;6.22;;
49688;SDS011;70518;51.400;7.428;2023-06-22T10:49:37;7.22;;;6.50;;
49688;SDS011;70518;51.400;7.428;2023-06-22T10:52:03;7.25;;;6.55;;
49688;SDS011;70518;51.400;7.428;2023-06-22T10:54:29;6.93;;;6.05;;
49688;SDS011;70518;51.400;7.428;2023-06-22T10:56:54;9.98;;;6.25;;
49688;SDS011;70518;51.400;7.428;2023-06-22T10:59:19;6.78;;;6.13;;
49688;SDS011;70518;51.400;7.428;2023-06-22T11:01:46;7.10;;;6.15;;
49688;SDS011;70518;51.400;7.428;2023-06-22T11:04:12;6.63;;;6.07;;
49688;SDS011;70518;51.400;7.428;2023-06-22T11:06:37;7.95;;;5.85;;
49688;SDS011;70518;51.400;7.428;2023-06-22T11:09:02;6.60;;;5.80;;
49688;SDS011;70518;51.400;7.428;2023-06-22T11:11:29;7.20;;;6.50;;
49688;SDS011;70518;51.400;7.428;2023-06-22T11:13:54;7.20;;;6.20;;
49688;SDS011;70518;51.400;7.428;2023-06-22T11:16:19;8.38;;;7.22;;
49688;SDS011;70518;51.400;7.428;2023-06-22T11:18:45;7.65;;;6.32;;
49688;SDS011;70518;51.400;7.428;2023-06-22T11:21:10;10.30;;;7.78;;
49688;SDS011;70518;51.400;7.428;2023-06-22T11:23:35;11.57;;;7.65;;
49688;SDS011;70518;51.400;7.428;2023-06-22T11:26:00;7.97;;;7.18;;
49688;SDS011;70518;51.400;7.428;2023-06-22T11:28:26;10.43;;;7.72;;
49688;SDS011;70518;51.400;7.428;2023-06-22T11:30:51;8.63;;;7.65;;
49688;SDS011;70518;51.400;7.428;2023-06-22T11:33:16;9.77;;;8.77;;
49688;SDS011;70518;51.400;7.428;2023-06-22T11:35:42;9.75;;;8.43;;
49688;SDS011;70518;51.400;7.428;2023-06-22T11:38:07;9.93;;;8.13;;
49688;SDS011;70518;51.400;7.428;2023-06-22T11:40:33;9.85;;;8.45;;
49688;SDS011;70518;51.400;7.428;2023-06-22T11:42:58;10.85;;;8.27;;
49688;SDS011;70518;51.400;7.428;2023-06-22T11:45:24;12.05;;;9.25;;
49688;SDS011;70518;51.400;7.428;2023-06-22T11:47:49;12.95;;;9.00;;
49688;SDS011;70518;51.400;7.428;2023-06-22T11:50:14;11.50;;;8.98;;
49688;SDS011;70518;51.400;7.428;2023-06-22T11:52:40;10.70;;;9.50;;
49688;SDS011;70518;51.400;7.428;2023-06-22T11:55:05;14.40;;;10.00;;
49688;SDS011;70518;51.400;7.428;2023-06-22T11:57:35;12.00;;;10.23;;
49688;SDS011;70518;51.400;7.428;2023-06-22T12:00:02;12.43;;;9.77;;
49688;SDS011;70518;51.400;7.428;2023-06-22T12:02:31;14.90;;;10.57;;
49688;SDS011;70518;51.400;7.428;2023-06-22T12:04:56;15.38;;;9.80;;
49688;SDS011;70518;51.400;7.428;2023-06-22T12:07:23;12.38;;;9.77;;
49688;SDS011;70518;51.400;7.428;2023-06-22T12:09:48;14.07;;;11.00;;
49688;SDS011;70518;51.400;7.428;2023-06-22T12:12:14;13.57;;;10.02;;
49688;SDS011;70518;51.400;7.428;2023-06-22T12:14:39;12.13;;;10.10;;
49688;SDS011;70518;51.400;7.428;2023-06-22T12:17:04;13.18;;;9.85;;
49688;SDS011;70518;51.400;7.428;2023-06-22T12:19:29;13.38;;;11.15;;
49688;SDS011;70518;51.400;7.428;2023-06-22T12:21:55;14.00;;;10.95;;
49688;SDS011;70518;51.400;7.428;2023-06-22T12:24:20;13.95;;;11.18;;
49688;SDS011;70518;51.400;7.428;2023-06-22T12:26:45;15.00;;;12.13;;
49688;SDS011;70518;51.400;7.428;2023-06-22T12:29:10;14.98;;;11.98;;
49688;SDS011;70518;51.400;7.428;2023-06-22T12:31:36;16.38;;;11.98;;
49688;SDS011;70518;51.400;7.428;2023-06-22T12:34:03;15.43;;;11.93;;
49688;SDS011;70518;51.400;7.428;2023-06-22T12:36:29;14.07;;;11.88;;
49688;SDS011;70518;51.400;7.428;2023-06-22T12:38:54;13.55;;;11.23;;
49688;SDS011;70518;51.400;7.428;2023-06-22T12:41:20;16.88;;;13.50;;
49688;SDS011;70518;51.400;7.428;2023-06-22T12:43:46;14.25;;;12.13;;
49688;SDS011;70518;51.400;7.428;2023-06-22T12:46:11;29.00;;;12.93;;
49688;SDS011;70518;51.400;7.428;2023-06-22T12:48:36;14.55;;;12.77;;
49688;SDS011;70518;51.400;7.428;2023-06-22T12:51:06;13.27;;;11.77;;
49688;SDS011;70518;51.400;7.428;2023-06-22T12:53:32;14.13;;;11.73;;
49688;SDS011;70518;51.400;7.428;2023-06-22T12:55:57;18.17;;;11.52;;
49688;SDS011;70518;51.400;7.428;2023-06-22T12:58:23;13.48;;;12.10;;
49688;SDS011;70518;51.400;7.428;2023-06-22T13:00:48;13.15;;;11.55;;
49688;SDS011;70518;51.400;7.428;2023-06-22T13:03:14;14.93;;;10.88;;
49688;SDS011;70518;51.400;7.428;2023-06-22T13:05:39;11.95;;;10.63;;
49688;SDS011;70518;51.400;7.428;2023-06-22T13:08:04;13.45;;;10.95;;
49688;SDS011;70518;51.400;7.428;2023-06-22T13:10:30;13.95;;;12.02;;
49688;SDS011;70518;51.400;7.428;2023-06-22T13:12:55;14.23;;;11.55;;
49688;SDS011;70518;51.400;7.428;2023-06-22T13:15:25;15.68;;;12.30;;
49688;SDS011;70518;51.400;7.428;2023-06-22T13:17:51;13.13;;;11.82;;
49688;SDS011;70518;51.400;7.428;2023-06-22T13:20:17;13.38;;;11.05;;
49688;SDS011;70518;51.400;7.428;2023-06-22T13:22:42;14.25;;;12.05;;
49688;SDS011;70518;51.400;7.428;2023-06-22T13:25:09;13.85;;;11.35;;
49688;SDS011;70518;51.400;7.428;2023-06-22T13:27:37;13.48;;;11.32;;
49688;SDS011;70518;51.400;7.428;2023-06-22T13:30:04;12.98;;;11.30;;
49688;SDS011;70518;51.400;7.428;2023-06-22T13:32:29;13.15;;;11.15;;
49688;SDS011;70518;51.400;7.428;2023-06-22T13:34:54;13.00;;;11.63;;
49688;SDS011;70518;51.400;7.428;2023-06-22T13:37:20;13.38;;;10.95;;
49688;SDS011;70518;51.400;7.428;2023-06-22T13:39:45;13.13;;;10.98;;
49688;SDS011;70518;51.400;7.428;2023-06-22T13:42:10;12.02;;;10.75;;
49688;SDS011;70518;51.400;7.428;2023-06-22T13:44:36;15.23;;;10.75;;
49688;SDS011;70518;51.400;7.428;2023-06-22T13:47:01;10.98;;;9.73;;
49688;SDS011;70518;51.400;7.428;2023-06-22T13:49:26;12.40;;;10.98;;
49688;SDS011;70518;51.400;7.428;2023-06-22T13:51:51;16.73;;;12.00;;
49688;SDS011;70518;51.400;7.428;2023-06-22T13:54:17;12.95;;;11.60;;
49688;SDS011;70518;51.400;7.428;2023-06-22T13:56:42;13.23;;;11.52;;
49688;SDS011;70518;51.400;7.428;2023-06-22T13:59:07;14.50;;;12.02;;
49688;SDS011;70518;51.400;7.428;2023-06-22T14:01:34;13.63;;;12.23;;
49688;SDS011;70518;51.400;7.428;2023-06-22T14:04:04;15.07;;;12.77;;
49688;SDS011;70518;51.400;7.428;2023-06-22T14:06:30;14.05;;;12.32;;
49688;SDS011;70518;51.400;7.428;2023-06-22T14:08:55;13.45;;;12.15;;
49688;SDS011;70518;51.400;7.428;2023-06-22T14:11:21;13.35;;;11.68;;
49688;SDS011;70518;51.400;7.428;2023-06-22T14:13:46;13.95;;;11.20;;
49688;SDS011;70518;51.400;7.428;2023-06-22T14:16:12;13.35;;;11.63;;
49688;SDS011;70518;51.400;7.428;2023-06-22T14:18:37;12.52;;;10.85;;
49688;SDS011;70518;51.400;7.428;2023-06-22T14:21:02;12.48;;;10.25;;
49688;SDS011;70518;51.400;7.428;2023-06-22T14:23:28;11.98;;;10.60;;
49688;SDS011;70518;51.400;7.428;2023-06-22T14:25:53;16.20;;;11.23;;
49688;SDS011;70518;51.400;7.428;2023-06-22T14:28:19;11.57;;;10.35;;
49688;SDS011;70518;51.400;7.428;2023-06-22T14:30:44;10.73;;;9.40;;
49688;SDS011;70518;51.400;7.428;2023-06-22T14:33:09;10.18;;;9.20;;
49688;SDS011;70518;51.400;7.428;2023-06-22T14:35:36;9.65;;;7.90;;
49688;SDS011;70518;51.400;7.428;2023-06-22T14:38:01;8.63;;;7.72;;
49688;SDS011;70518;51.400;7.428;2023-06-22T14:40:26;8.80;;;7.90;;